Time;durP1;ratioP1;P1;durP2;ratioP2;P2;SDS_P1;SDS_P2;PMS_P1;PMS_P2;Temp;Humidity;BMP_temperature;BMP_pressure;BME280_temperature;BME280_humidity;BME280_pressure;Samples;Min_cycle;Max_cycle;Signal;HPM_P1;HPM_P2
2022/02/24 00:02:06;;;;;;;5.88;1.38;;;;;;;;;;5086083;28;20055;-72
2022/02/24 00:04:32;;;;;;;10.10;1.70;;;;;;;;;;5086064;28;20202;-74
2022/02/24 00:06:59;;;;;;;7.43;1.50;;;;;;;;;;5079263;28;20723;-75
2022/02/24 00:09:25;;;;;;;6.10;1.92;;;;;;;;;;5087051;28;20044;-74
2022/02/24 00:11:51;;;;;;;4.97;1.10;;;;;;;;;;5081717;28;20024;-75
2022/02/24 00:14:17;;;;;;;3.67;1.52;;;;;;;;;;5084905;28;20329;-74
2022/02/24 00:16:44;;;;;;;8.18;1.52;;;;;;;;;;5080704;28;20024;-70
2022/02/24 00:19:10;;;;;;;5.15;1.00;;;;;;;;;;5080334;28;20021;-71
2022/02/24 00:21:36;;;;;;;3.58;1.30;;;;;;;;;;5069687;28;20021;-70
2022/02/24 00:24:02;;;;;;;3.78;1.00;;;;;;;;;;5073259;28;20038;-70
2022/02/24 00:26:28;;;;;;;4.13;1.50;;;;;;;;;;5075295;28;20107;-70
2022/02/24 00:28:54;;;;;;;6.35;1.38;;;;;;;;;;5079715;28;20038;-70
2022/02/24 00:31:22;;;;;;;7.35;1.98;;;;;;;;;;5075683;28;20038;-70
2022/02/24 00:33:48;;;;;;;6.93;1.55;;;;;;;;;;5073510;28;20023;-70
2022/02/24 00:36:14;;;;;;;5.78;1.52;;;;;;;;;;5076135;28;20028;-71
2022/02/24 00:38:41;;;;;;;6.63;1.50;;;;;;;;;;5072695;28;20529;-71
2022/02/24 00:41:07;;;;;;;5.93;1.30;;;;;;;;;;5072676;28;20455;-71
2022/02/24 00:43:33;;;;;;;7.15;1.50;;;;;;;;;;5074749;28;20024;-70
2022/02/24 00:45:59;;;;;;;5.20;1.10;;;;;;;;;;5076658;28;20033;-70
2022/02/24 00:48:25;;;;;;;4.68;1.10;;;;;;;;;;5072394;28;20047;-70
2022/02/24 00:50:51;;;;;;;3.92;1.27;;;;;;;;;;5067918;28;20029;-70
2022/02/24 00:53:17;;;;;;;5.32;1.42;;;;;;;;;;5075120;28;20034;-70
2022/02/24 00:55:45;;;;;;;2.58;1.02;;;;;;;;;;5072190;28;20031;-71
2022/02/24 00:58:11;;;;;;;3.13;1.33;;;;;;;;;;5080431;28;20032;-70
2022/02/24 01:00:37;;;;;;;4.45;1.15;;;;;;;;;;5072562;28;20021;-71
2022/02/24 01:03:03;;;;;;;3.08;1.50;;;;;;;;;;5079913;28;20055;-70
2022/02/24 01:05:29;;;;;;;3.67;1.60;;;;;;;;;;5075951;28;20016;-70
2022/02/24 01:07:55;;;;;;;4.53;1.70;;;;;;;;;;5080712;28;20039;-70
2022/02/24 01:10:21;;;;;;;4.97;1.38;;;;;;;;;;5074813;28;20016;-70
2022/02/24 01:12:48;;;;;;;6.53;1.67;;;;;;;;;;5075691;28;20030;-70
2022/02/24 01:15:14;;;;;;;6.20;1.25;;;;;;;;;;5075728;28;20024;-69
2022/02/24 01:17:40;;;;;;;4.35;1.48;;;;;;;;;;5082357;28;20379;-70
2022/02/24 01:20:07;;;;;;;4.78;1.10;;;;;;;;;;5065940;28;20734;-70
2022/02/24 01:22:33;;;;;;;4.38;1.17;;;;;;;;;;5067751;28;20032;-70
2022/02/24 01:25:00;;;;;;;5.25;1.65;;;;;;;;;;5086457;28;20402;-70
2022/02/24 01:27:26;;;;;;;5.03;1.30;;;;;;;;;;5080080;28;20753;-70
2022/02/24 01:29:52;;;;;;;6.07;1.30;;;;;;;;;;5074962;28;20071;-70
2022/02/24 01:32:18;;;;;;;5.28;1.20;;;;;;;;;;5068839;28;20021;-70
2022/02/24 01:34:45;;;;;;;3.03;1.25;;;;;;;;;;5074012;28;20028;-71
2022/02/24 01:37:11;;;;;;;4.15;1.27;;;;;;;;;;5076235;28;20196;-70
2022/02/24 01:39:37;;;;;;;4.15;1.20;;;;;;;;;;5077318;28;20028;-70
2022/02/24 01:42:03;;;;;;;3.88;1.30;;;;;;;;;;5072890;28;20024;-70
2022/02/24 01:44:43;;;;;;;5.45;1.42;;;;;;;;;;5075475;28;20077;-70
2022/02/24 01:47:09;;;;;;;4.82;1.30;;;;;;;;;;5072951;28;20028;-70
2022/02/24 01:49:35;;;;;;;6.45;1.65;;;;;;;;;;5074661;28;20036;-70
2022/02/24 01:52:04;;;;;;;9.20;1.75;;;;;;;;;;5071860;28;20039;-71
2022/02/24 01:54:33;;;;;;;4.00;1.10;;;;;;;;;;5075681;28;20410;-70
2022/02/24 01:57:00;;;;;;;3.38;0.98;;;;;;;;;;5067737;28;20345;-70
2022/02/24 01:59:26;;;;;;;3.83;1.10;;;;;;;;;;5071634;28;20024;-70
2022/02/24 02:01:52;;;;;;;4.90;1.25;;;;;;;;;;5074965;28;20028;-70
2022/02/24 02:04:18;;;;;;;3.15;1.17;;;;;;;;;;5072081;28;20039;-70
2022/02/24 02:06:45;;;;;;;8.27;1.30;;;;;;;;;;5078424;28;20030;-69
2022/02/24 02:09:11;;;;;;;5.40;1.27;;;;;;;;;;5075108;28;20040;-70
2022/02/24 02:11:38;;;;;;;4.60;1.30;;;;;;;;;;5073065;28;20476;-70
2022/02/24 02:14:04;;;;;;;5.60;1.67;;;;;;;;;;5068583;28;20028;-70
2022/02/24 02:16:30;;;;;;;3.95;1.13;;;;;;;;;;5075685;28;20040;-70
2022/02/24 02:18:56;;;;;;;5.53;1.30;;;;;;;;;;5070346;28;20115;-74
2022/02/24 02:21:22;;;;;;;8.52;1.70;;;;;;;;;;5074882;28;20034;-73
2022/02/24 02:23:48;;;;;;;7.22;1.20;;;;;;;;;;5075121;28;20027;-72
2022/02/24 02:26:15;;;;;;;6.18;1.77;;;;;;;;;;5073591;28;20036;-72
2022/02/24 02:28:41;;;;;;;3.30;1.30;;;;;;;;;;5071022;28;20484;-71
2022/02/24 02:31:07;;;;;;;8.55;1.38;;;;;;;;;;5063865;28;20029;-72
2022/02/24 02:33:33;;;;;;;4.20;0.98;;;;;;;;;;5077756;28;20524;-75
2022/02/24 02:35:59;;;;;;;6.03;1.27;;;;;;;;;;5074751;28;20112;-75
2022/02/24 02:38:26;;;;;;;6.82;1.42;;;;;;;;;;5073175;28;20695;-74
2022/02/24 02:40:52;;;;;;;7.15;1.50;;;;;;;;;;5079587;28;20024;-74
2022/02/24 02:43:18;;;;;;;4.50;1.10;;;;;;;;;;5080801;28;20032;-73
2022/02/24 02:45:44;;;;;;;4.63;1.48;;;;;;;;;;5078738;28;20109;-74
2022/02/24 02:48:10;;;;;;;4.05;1.42;;;;;;;;;;5077091;28;20182;-75
2022/02/24 02:50:36;;;;;;;4.88;1.08;;;;;;;;;;5078826;28;20496;-75
2022/02/24 02:53:03;;;;;;;5.68;1.42;;;;;;;;;;5081101;28;20042;-72
2022/02/24 02:55:30;;;;;;;9.82;2.20;;;;;;;;;;5079509;28;20261;-71
2022/02/24 02:57:56;;;;;;;4.82;1.50;;;;;;;;;;5074235;28;20543;-75
2022/02/24 03:00:22;;;;;;;4.82;1.20;;;;;;;;;;5075466;28;20023;-74
2022/02/24 03:02:48;;;;;;;5.22;1.35;;;;;;;;;;5082562;28;20308;-70
2022/02/24 03:05:15;;;;;;;6.10;1.17;;;;;;;;;;5074921;28;20067;-71
2022/02/24 03:07:41;;;;;;;9.10;1.65;;;;;;;;;;5076692;28;20396;-75
2022/02/24 03:10:07;;;;;;;4.65;1.02;;;;;;;;;;5080659;28;20047;-71
2022/02/24 03:12:35;;;;;;;4.03;1.27;;;;;;;;;;5078739;28;20016;-72
2022/02/24 03:15:13;;;;;;;6.15;1.40;;;;;;;;;;5076172;28;20043;-73
2022/02/24 03:17:43;;;;;;;3.08;1.20;;;;;;;;;;5069367;28;20050;-75
2022/02/24 03:20:10;;;;;;;6.65;1.33;;;;;;;;;;5064053;28;20028;-74
2022/02/24 03:22:37;;;;;;;4.85;1.35;;;;;;;;;;5063652;28;20032;-73
2022/02/24 03:25:03;;;;;;;5.00;1.33;;;;;;;;;;5065925;28;20029;-73
2022/02/24 03:27:30;;;;;;;5.45;1.50;;;;;;;;;;5065395;28;20021;-73
2022/02/24 03:29:56;;;;;;;4.72;1.17;;;;;;;;;;5065437;28;20634;-73
2022/02/24 03:32:22;;;;;;;3.90;1.55;;;;;;;;;;5063579;28;20085;-74
2022/02/24 03:34:49;;;;;;;5.22;1.20;;;;;;;;;;5064383;28;20059;-74
2022/02/24 03:37:16;;;;;;;8.10;1.67;;;;;;;;;;5065048;28;20052;-74
2022/02/24 03:39:42;;;;;;;6.47;1.42;;;;;;;;;;5072858;28;20060;-73
2022/02/24 03:42:08;;;;;;;4.55;1.25;;;;;;;;;;5073547;28;20021;-75
2022/02/24 03:44:35;;;;;;;2.88;0.90;;;;;;;;;;5073248;28;20100;-75
2022/02/24 03:47:01;;;;;;;3.80;1.20;;;;;;;;;;5084915;28;20183;-74
2022/02/24 03:49:27;;;;;;;5.10;1.33;;;;;;;;;;5084409;28;20150;-73
2022/02/24 03:51:53;;;;;;;5.28;1.20;;;;;;;;;;5083908;28;20081;-75
2022/02/24 03:54:20;;;;;;;4.35;1.08;;;;;;;;;;5075017;28;20455;-75
2022/02/24 03:56:46;;;;;;;3.50;1.13;;;;;;;;;;5076213;28;20500;-72
2022/02/24 03:59:12;;;;;;;5.68;1.52;;;;;;;;;;5077750;28;20031;-74
2022/02/24 04:01:39;;;;;;;5.75;1.33;;;;;;;;;;5080517;28;20052;-72
2022/02/24 04:04:05;;;;;;;7.00;2.08;;;;;;;;;;5058981;28;20525;-74
2022/02/24 04:06:31;;;;;;;7.38;1.10;;;;;;;;;;5075882;28;20036;-74
2022/02/24 04:08:57;;;;;;;2.67;1.00;;;;;;;;;;5065219;28;20061;-74
2022/02/24 04:11:23;;;;;;;6.30;1.13;;;;;;;;;;5063244;28;20036;-75
2022/02/24 04:13:49;;;;;;;4.30;1.58;;;;;;;;;;5064443;28;20031;-76
2022/02/24 04:16:16;;;;;;;2.33;1.00;;;;;;;;;;5062569;28;20024;-75
2022/02/24 04:18:42;;;;;;;5.28;1.20;;;;;;;;;;5064028;28;20025;-73
2022/02/24 04:21:08;;;;;;;6.05;0.98;;;;;;;;;;5064044;28;20453;-73
2022/02/24 04:23:34;;;;;;;7.72;1.42;;;;;;;;;;5063969;28;20029;-77
2022/02/24 04:26:01;;;;;;;9.60;2.28;;;;;;;;;;5063804;28;20070;-74
2022/02/24 04:28:27;;;;;;;6.45;1.70;;;;;;;;;;5065544;28;20369;-73
2022/02/24 04:30:53;;;;;;;4.13;1.58;;;;;;;;;;5084289;28;20464;-74
2022/02/24 04:33:19;;;;;;;4.47;1.45;;;;;;;;;;5084469;28;20034;-75
2022/02/24 04:35:45;;;;;;;5.88;1.35;;;;;;;;;;5065637;28;20028;-75
2022/02/24 04:38:12;;;;;;;4.45;1.95;;;;;;;;;;5065779;28;20036;-75
2022/02/24 04:40:38;;;;;;;3.63;0.82;;;;;;;;;;5082467;28;20027;-76
2022/02/24 04:43:05;;;;;;;2.47;1.00;;;;;;;;;;5065638;28;20039;-74
2022/02/24 04:45:31;;;;;;;4.15;1.10;;;;;;;;;;5083668;28;20361;-74
2022/02/24 04:47:57;;;;;;;3.17;1.02;;;;;;;;;;5083844;28;20035;-72
2022/02/24 04:50:23;;;;;;;2.95;1.20;;;;;;;;;;5083703;28;20053;-74
2022/02/24 04:52:49;;;;;;;3.88;1.25;;;;;;;;;;5082646;28;20589;-75
2022/02/24 04:55:15;;;;;;;3.47;0.98;;;;;;;;;;5084076;28;20039;-75
2022/02/24 04:57:42;;;;;;;6.30;1.77;;;;;;;;;;5083788;28;20024;-74
2022/02/24 05:00:09;;;;;;;6.72;1.08;;;;;;;;;;5081905;28;20482;-75
2022/02/24 05:02:36;;;;;;;3.33;0.75;;;;;;;;;;5081160;28;20052;-75
2022/02/24 05:05:02;;;;;;;7.22;1.42;;;;;;;;;;5058363;28;20084;-72
2022/02/24 05:07:28;;;;;;;5.20;1.35;;;;;;;;;;5060851;28;20054;-73
2022/02/24 05:09:54;;;;;;;1.95;0.85;;;;;;;;;;5060693;28;20040;-73
2022/02/24 05:12:20;;;;;;;7.90;1.20;;;;;;;;;;5059562;28;20024;-72
2022/02/24 05:14:47;;;;;;;3.10;1.00;;;;;;;;;;5059163;28;20017;-74
2022/02/24 05:17:13;;;;;;;4.57;1.10;;;;;;;;;;5060890;28;20077;-70
2022/02/24 05:19:40;;;;;;;4.03;1.00;;;;;;;;;;5064929;28;20020;-71
2022/02/24 05:22:06;;;;;;;1.55;0.90;;;;;;;;;;5081095;28;20024;-73
2022/02/24 05:24:33;;;;;;;6.97;1.13;;;;;;;;;;5080874;28;20387;-70
2022/02/24 05:26:59;;;;;;;3.65;1.00;;;;;;;;;;5079340;28;20028;-73
2022/02/24 05:29:25;;;;;;;5.32;1.20;;;;;;;;;;5062714;28;20633;-73
2022/02/24 05:31:51;;;;;;;1.80;0.82;;;;;;;;;;5080385;28;20016;-74
2022/02/24 05:34:18;;;;;;;3.17;1.10;;;;;;;;;;5081019;28;20492;-71
2022/02/24 05:36:44;;;;;;;0.85;0.60;;;;;;;;;;5079259;28;20020;-72
2022/02/24 05:39:11;;;;;;;2.05;0.80;;;;;;;;;;5080501;28;20046;-72
2022/02/24 05:41:37;;;;;;;2.53;0.77;;;;;;;;;;5080407;28;20058;-71
2022/02/24 05:44:04;;;;;;;2.95;1.10;;;;;;;;;;5080570;28;20108;-75
2022/02/24 05:46:30;;;;;;;3.40;0.93;;;;;;;;;;5062537;28;20035;-75
2022/02/24 05:48:56;;;;;;;4.93;0.90;;;;;;;;;;5078444;28;20142;-73
2022/02/24 05:51:22;;;;;;;2.00;0.77;;;;;;;;;;5079941;28;20032;-72
2022/02/24 05:53:48;;;;;;;3.40;0.68;;;;;;;;;;5080313;28;20054;-73
2022/02/24 05:56:15;;;;;;;1.48;0.80;;;;;;;;;;5078995;28;20786;-75
2022/02/24 05:58:42;;;;;;;4.40;1.10;;;;;;;;;;5080311;28;20654;-74
2022/02/24 06:01:09;;;;;;;2.50;0.90;;;;;;;;;;5080487;28;20441;-74
2022/02/24 06:03:36;;;;;;;5.72;1.13;;;;;;;;;;5080030;28;20097;-74
2022/02/24 06:06:02;;;;;;;2.83;1.05;;;;;;;;;;5077941;28;20028;-71
2022/02/24 06:08:29;;;;;;;4.55;0.80;;;;;;;;;;5078515;28;20043;-75
2022/02/24 06:10:55;;;;;;;2.13;0.90;;;;;;;;;;5080176;28;20024;-71
2022/02/24 06:13:21;;;;;;;2.40;1.00;;;;;;;;;;5079863;28;20032;-72
2022/02/24 06:15:47;;;;;;;3.67;1.00;;;;;;;;;;5080158;28;20058;-75
2022/02/24 06:18:18;;;;;;;2.42;1.00;;;;;;;;;;5078877;28;20028;-74
2022/02/24 06:20:46;;;;;;;4.85;0.95;;;;;;;;;;5080005;28;20036;-73
2022/02/24 06:23:12;;;;;;;2.63;0.90;;;;;;;;;;5078136;28;20122;-71
2022/02/24 06:25:38;;;;;;;3.00;0.95;;;;;;;;;;5079313;28;20050;-72
2022/02/24 06:28:04;;;;;;;7.57;1.35;;;;;;;;;;5062303;28;20032;-71
2022/02/24 06:30:31;;;;;;;3.40;1.00;;;;;;;;;;5082592;28;20028;-69
2022/02/24 06:32:57;;;;;;;3.10;1.30;;;;;;;;;;5080898;28;20020;-71
2022/02/24 06:35:23;;;;;;;3.42;1.17;;;;;;;;;;5081646;28;20028;-73
2022/02/24 06:37:49;;;;;;;6.93;2.50;;;;;;;;;;5081465;28;20623;-73
2022/02/24 06:40:15;;;;;;;7.95;2.58;;;;;;;;;;5080467;28;20016;-73
2022/02/24 06:42:42;;;;;;;5.60;1.77;;;;;;;;;;5081532;28;20792;-75
2022/02/24 06:45:08;;;;;;;8.18;2.33;;;;;;;;;;5081407;28;20058;-73
2022/02/24 06:47:35;;;;;;;10.02;2.78;;;;;;;;;;5081243;28;20032;-73
2022/02/24 06:50:01;;;;;;;25.92;2.67;;;;;;;;;;5081552;28;20039;-73
2022/02/24 06:52:27;;;;;;;7.95;2.30;;;;;;;;;;5081756;28;20649;-74
2022/02/24 06:54:55;;;;;;;14.15;3.25;;;;;;;;;;5079735;28;20103;-73
2022/02/24 06:57:21;;;;;;;11.18;3.53;;;;;;;;;;5081981;28;20040;-72
2022/02/24 06:59:47;;;;;;;7.72;3.10;;;;;;;;;;5081426;28;20024;-72
2022/02/24 07:02:13;;;;;;;14.13;3.90;;;;;;;;;;5079590;28;20046;-72
2022/02/24 07:04:39;;;;;;;17.17;3.80;;;;;;;;;;5081918;28;20511;-71
2022/02/24 07:07:06;;;;;;;12.93;4.00;;;;;;;;;;5080908;28;20024;-72
2022/02/24 07:09:32;;;;;;;9.25;4.15;;;;;;;;;;5080872;28;20040;-73
2022/02/24 07:11:59;;;;;;;7.45;3.58;;;;;;;;;;5081028;28;20024;-73
2022/02/24 07:14:25;;;;;;;10.75;3.65;;;;;;;;;;5080125;28;20028;-73
2022/02/24 07:16:51;;;;;;;10.30;3.25;;;;;;;;;;5077785;28;20016;-72
2022/02/24 07:19:18;;;;;;;8.50;3.58;;;;;;;;;;5059878;28;20032;-72
2022/02/24 07:21:44;;;;;;;12.35;4.65;;;;;;;;;;5061270;28;20024;-74
2022/02/24 07:24:10;;;;;;;13.73;5.00;;;;;;;;;;5062891;28;20443;-77
2022/02/24 07:26:36;;;;;;;15.00;4.75;;;;;;;;;;5079894;28;20037;-72
2022/02/24 07:29:03;;;;;;;12.68;4.90;;;;;;;;;;5080642;28;20054;-72
2022/02/24 07:31:29;;;;;;;10.70;4.80;;;;;;;;;;5085316;28;20028;-71
2022/02/24 07:33:58;;;;;;;14.95;5.97;;;;;;;;;;5064020;28;20027;-73
2022/02/24 07:36:24;;;;;;;15.05;6.18;;;;;;;;;;5077119;28;20027;-72
2022/02/24 07:38:51;;;;;;;15.73;6.75;;;;;;;;;;5082636;28;20035;-72
2022/02/24 07:41:17;;;;;;;16.92;6.85;;;;;;;;;;5081353;28;20051;-72
2022/02/24 07:43:43;;;;;;;12.60;8.27;;;;;;;;;;5083094;28;20024;-72
2022/02/24 07:46:09;;;;;;;15.23;8.77;;;;;;;;;;5082364;28;20020;-72
2022/02/24 07:48:35;;;;;;;13.90;8.88;;;;;;;;;;5081150;28;20790;-72
2022/02/24 07:51:01;;;;;;;19.83;9.98;;;;;;;;;;5082558;28;20501;-72
2022/02/24 07:53:28;;;;;;;26.00;11.45;;;;;;;;;;5081500;28;20032;-72
2022/02/24 07:55:55;;;;;;;20.95;12.30;;;;;;;;;;5082732;28;20308;-72
2022/02/24 07:58:21;;;;;;;24.85;13.13;;;;;;;;;;5082586;28;20093;-72
2022/02/24 08:00:47;;;;;;;22.48;13.05;;;;;;;;;;5082438;28;20024;-72
2022/02/24 08:03:13;;;;;;;27.35;13.80;;;;;;;;;;5080496;28;20554;-72
2022/02/24 08:05:39;;;;;;;21.35;12.88;;;;;;;;;;5082176;28;20020;-71
2022/02/24 08:08:06;;;;;;;24.02;12.23;;;;;;;;;;5063724;28;20039;-72
2022/02/24 08:10:32;;;;;;;21.75;13.65;;;;;;;;;;5078899;28;20058;-72
2022/02/24 08:12:58;;;;;;;24.50;16.70;;;;;;;;;;5082259;28;20024;-72
2022/02/24 08:15:24;;;;;;;34.83;17.08;;;;;;;;;;5052637;28;20434;-72
2022/02/24 08:17:54;;;;;;;26.13;14.30;;;;;;;;;;5061818;28;20031;-72
2022/02/24 08:20:20;;;;;;;30.20;15.30;;;;;;;;;;5079516;28;20449;-72
2022/02/24 08:22:49;;;;;;;19.33;11.98;;;;;;;;;;5081624;28;20115;-72
2022/02/24 08:25:16;;;;;;;13.65;7.95;;;;;;;;;;5081645;28;20035;-73
2022/02/24 08:27:44;;;;;;;10.73;5.60;;;;;;;;;;5082389;28;20042;-72
2022/02/24 08:30:11;;;;;;;10.40;5.30;;;;;;;;;;5080835;28;20039;-75
2022/02/24 08:32:38;;;;;;;6.03;3.85;;;;;;;;;;5080394;28;20027;-73
2022/02/24 08:35:05;;;;;;;5.82;4.32;;;;;;;;;;5080643;28;20039;-72
2022/02/24 08:37:31;;;;;;;4.50;2.72;;;;;;;;;;5081059;28;20035;-73
2022/02/24 08:39:58;;;;;;;6.32;2.60;;;;;;;;;;5081103;28;20028;-72
2022/02/24 08:42:25;;;;;;;5.88;3.72;;;;;;;;;;5081618;28;20093;-71
2022/02/24 08:44:54;;;;;;;5.55;1.50;;;;;;;;;;5081148;28;20606;-72
2022/02/24 08:47:21;;;;;;;6.05;3.25;;;;;;;;;;5079396;28;20035;-73
2022/02/24 08:49:47;;;;;;;9.90;3.45;;;;;;;;;;5081226;28;20040;-72
2022/02/24 08:52:14;;;;;;;6.20;2.78;;;;;;;;;;5081607;28;20890;-73
2022/02/24 08:54:40;;;;;;;6.43;2.58;;;;;;;;;;5081478;28;20035;-71
2022/02/24 08:57:06;;;;;;;5.38;2.40;;;;;;;;;;5081324;28;20085;-72
2022/02/24 08:59:33;;;;;;;4.85;2.15;;;;;;;;;;5081455;28;20020;-71
2022/02/24 09:02:00;;;;;;;6.10;2.80;;;;;;;;;;5041501;28;20521;-71
2022/02/24 09:04:26;;;;;;;4.88;2.55;;;;;;;;;;5070670;28;20026;-71
2022/02/24 09:06:52;;;;;;;5.40;2.28;;;;;;;;;;5080956;28;20036;-71
2022/02/24 09:09:18;;;;;;;7.55;3.63;;;;;;;;;;5062901;28;20048;-71
2022/02/24 09:11:45;;;;;;;5.65;2.65;;;;;;;;;;5078937;28;20067;-72
2022/02/24 09:14:11;;;;;;;6.00;2.33;;;;;;;;;;5080946;28;20028;-71
2022/02/24 09:16:38;;;;;;;4.45;1.50;;;;;;;;;;5067394;28;20534;-71
2022/02/24 09:19:04;;;;;;;7.15;1.70;;;;;;;;;;5080966;28;20040;-71
2022/02/24 09:21:30;;;;;;;3.92;1.60;;;;;;;;;;5079654;28;20035;-71
2022/02/24 09:23:56;;;;;;;2.60;1.38;;;;;;;;;;5065955;28;20029;-71
2022/02/24 09:26:22;;;;;;;2.83;1.13;;;;;;;;;;5082183;28;20020;-71
2022/02/24 09:28:48;;;;;;;3.70;1.52;;;;;;;;;;5071660;28;20036;-71
2022/02/24 09:31:15;;;;;;;3.10;1.80;;;;;;;;;;5083459;28;20020;-71
2022/02/24 09:33:41;;;;;;;4.90;1.90;;;;;;;;;;5049128;28;20370;-71
2022/02/24 09:36:07;;;;;;;4.95;2.00;;;;;;;;;;5061126;28;20024;-70
2022/02/24 09:38:33;;;;;;;2.72;1.77;;;;;;;;;;5062987;28;20036;-71
2022/02/24 09:40:59;;;;;;;3.38;2.22;;;;;;;;;;5062746;28;20024;-71
2022/02/24 09:43:27;;;;;;;3.55;2.15;;;;;;;;;;5043086;28;20122;-71
2022/02/24 09:45:58;;;;;;;4.50;2.13;;;;;;;;;;5078328;28;20073;-73
2022/02/24 09:48:28;;;;;;;3.72;2.28;;;;;;;;;;5075251;28;20098;-71
2022/02/24 09:50:55;;;;;;;4.25;1.90;;;;;;;;;;5078249;28;20024;-71
2022/02/24 09:53:23;;;;;;;3.22;1.60;;;;;;;;;;5082425;28;20022;-71
2022/02/24 09:55:49;;;;;;;3.47;1.85;;;;;;;;;;5078363;28;20020;-71
2022/02/24 09:58:15;;;;;;;3.17;1.75;;;;;;;;;;5081854;28;20024;-71
2022/02/24 10:00:42;;;;;;;3.90;1.80;;;;;;;;;;5082989;28;20129;-71
2022/02/24 10:03:23;;;;;;;3.17;1.65;;;;;;;;;;5082433;28;20042;-71
2022/02/24 10:05:50;;;;;;;3.40;1.88;;;;;;;;;;5080883;28;20059;-72
2022/02/24 10:08:16;;;;;;;4.35;1.33;;;;;;;;;;5082513;28;20032;-71
2022/02/24 10:10:43;;;;;;;4.32;1.80;;;;;;;;;;5082263;28;20036;-71
2022/02/24 10:13:13;;;;;;;3.45;1.50;;;;;;;;;;5081378;28;20035;-71
2022/02/24 10:15:41;;;;;;;3.33;1.58;;;;;;;;;;5082508;28;20031;-71
2022/02/24 10:18:11;;;;;;;2.55;1.65;;;;;;;;;;5081179;28;20721;-71
2022/02/24 10:20:38;;;;;;;5.30;2.20;;;;;;;;;;5072190;28;20431;-71
2022/02/24 10:23:05;;;;;;;2.90;1.75;;;;;;;;;;5074179;28;20501;-71
2022/02/24 10:25:38;;;;;;;2.22;1.30;;;;;;;;;;5078147;28;20135;-71
2022/02/24 10:28:05;;;;;;;3.40;1.52;;;;;;;;;;5078430;28;20067;-72
2022/02/24 10:30:31;;;;;;;8.65;1.80;;;;;;;;;;5079011;28;20040;-71
2022/02/24 10:33:00;;;;;;;1.80;1.00;;;;;;;;;;5077971;28;20038;-71
2022/02/24 10:35:27;;;;;;;2.63;1.30;;;;;;;;;;5079721;28;20028;-71
2022/02/24 10:37:57;;;;;;;2.17;1.20;;;;;;;;;;5080618;28;20077;-71
2022/02/24 10:40:23;;;;;;;2.38;1.40;;;;;;;;;;5080512;28;20483;-72
2022/02/24 10:42:50;;;;;;;2.63;1.38;;;;;;;;;;5079909;28;20032;-72
2022/02/24 10:45:21;;;;;;;2.25;1.25;;;;;;;;;;5080152;28;20063;-72
2022/02/24 10:48:01;;;;;;;4.27;1.20;;;;;;;;;;5077787;28;20023;-72
2022/02/24 10:50:47;;;;;;;2.22;1.00;;;;;;;;;;5079684;28;20039;-71
2022/02/24 10:53:14;;;;;;;1.95;1.10;;;;;;;;;;5079875;28;20133;-72
2022/02/24 10:56:07;;;;;;;1.58;1.10;;;;;;;;;;5080064;28;20020;-72
2022/02/24 10:58:33;;;;;;;4.88;1.55;;;;;;;;;;5074935;28;20028;-72
2022/02/24 11:01:05;;;;;;;52.38;10.35;;;;;;;;;;5079159;28;20036;-72
2022/02/24 11:03:31;;;;;;;28.70;13.95;;;;;;;;;;5079719;28;20086;-72
2022/02/24 11:06:02;;;;;;;5.82;2.53;;;;;;;;;;5083774;28;20027;-71
2022/02/24 11:08:29;;;;;;;2.80;1.30;;;;;;;;;;5079895;28;20475;-72
2022/02/24 11:10:56;;;;;;;11.70;3.30;;;;;;;;;;5083703;28;20027;-71
2022/02/24 11:13:23;;;;;;;6.72;2.25;;;;;;;;;;5083656;28;20024;-71
2022/02/24 11:15:49;;;;;;;5.65;2.80;;;;;;;;;;5083242;28;20027;-73
2022/02/24 11:18:17;;;;;;;3.55;1.33;;;;;;;;;;5063419;28;21004;-72
2022/02/24 11:20:43;;;;;;;3.13;1.60;;;;;;;;;;5083083;28;20594;-72
2022/02/24 11:23:09;;;;;;;2.08;1.40;;;;;;;;;;5083105;28;20123;-73
2022/02/24 11:25:42;;;;;;;2.30;1.58;;;;;;;;;;5083124;28;20034;-72
2022/02/24 11:28:11;;;;;;;6.60;2.58;;;;;;;;;;5081486;28;20028;-73
2022/02/24 11:30:39;;;;;;;6.85;2.90;;;;;;;;;;5083222;28;20046;-76
2022/02/24 11:33:06;;;;;;;4.47;2.22;;;;;;;;;;5082702;28;20058;-73
2022/02/24 11:35:32;;;;;;;4.90;2.40;;;;;;;;;;5082600;28;20508;-78
2022/02/24 11:38:12;;;;;;;5.05;2.38;;;;;;;;;;5081552;28;20734;-74
2022/02/24 11:40:38;;;;;;;6.53;2.13;;;;;;;;;;5081770;28;20476;-76
2022/02/24 11:43:13;;;;;;;5.35;2.63;;;;;;;;;;5083289;28;20140;-72
2022/02/24 11:45:50;;;;;;;4.47;1.95;;;;;;;;;;5081104;28;20032;-73
2022/02/24 11:48:19;;;;;;;4.72;2.20;;;;;;;;;;5082800;28;20035;-72
2022/02/24 11:50:47;;;;;;;4.05;2.05;;;;;;;;;;5082374;28;20032;-73
2022/02/24 11:53:39;;;;;;;5.13;1.77;;;;;;;;;;5083224;28;20024;-74
2022/02/24 11:56:15;;;;;;;6.05;1.58;;;;;;;;;;5078256;28;20063;-71
2022/02/24 11:58:55;;;;;;;3.60;1.23;;;;;;;;;;5082304;28;20123;-72
2022/02/24 12:01:47;;;;;;;1.85;1.10;;;;;;;;;;5081591;28;20056;-73
2022/02/24 12:04:28;;;;;;;2.15;1.15;;;;;;;;;;5082379;28;20461;-72
2022/02/24 12:06:56;;;;;;;4.30;1.63;;;;;;;;;;5080660;28;20027;-73
2022/02/24 12:09:24;;;;;;;5.68;1.42;;;;;;;;;;5080514;28;20119;-74
2022/02/24 12:11:56;;;;;;;3.88;1.60;;;;;;;;;;5082420;28;20023;-74
2022/02/24 12:14:22;;;;;;;;;;;;;;;;;;5082769;28;20032;-74
2022/02/24 12:17:03;;;;;;;4.65;1.20;;;;;;;;;;5080406;28;19916;-71
2022/02/24 12:19:48;;;;;;;4.60;1.20;;;;;;;;;;5082149;28;20027;-74
2022/02/24 12:22:29;;;;;;;2.95;1.20;;;;;;;;;;5082454;28;20429;-72
2022/02/24 12:25:03;;;;;;;7.27;1.80;;;;;;;;;;5082334;28;20032;-74
2022/02/24 12:27:29;;;;;;;3.65;1.15;;;;;;;;;;5081728;28;20632;-74
2022/02/24 12:30:17;;;;;;;5.43;1.40;;;;;;;;;;5080125;28;20036;-73
2022/02/24 12:32:43;;;;;;;2.85;1.10;;;;;;;;;;5081997;28;20398;-73
2022/02/24 12:35:11;;;;;;;2.60;1.20;;;;;;;;;;5081714;28;20028;-72
2022/02/24 12:37:38;;;;;;;7.45;1.27;;;;;;;;;;5080027;28;20107;-72
2022/02/24 12:40:05;;;;;;;4.10;1.20;;;;;;;;;;5063365;28;20524;-73
2022/02/24 12:42:31;;;;;;;4.10;1.10;;;;;;;;;;5081791;28;20081;-71
2022/02/24 12:44:57;;;;;;;4.13;1.45;;;;;;;;;;5081474;28;20065;-72
2022/02/24 12:47:24;;;;;;;4.95;1.33;;;;;;;;;;5081849;28;20020;-74
2022/02/24 12:49:57;;;;;;;2.70;1.10;;;;;;;;;;5081326;28;20032;-73
2022/02/24 12:52:27;;;;;;;4.57;1.48;;;;;;;;;;5080375;28;20093;-74
2022/02/24 12:54:54;;;;;;;2.42;1.02;;;;;;;;;;5081497;28;20621;-74
2022/02/24 12:57:20;;;;;;;2.85;0.82;;;;;;;;;;5080675;28;20028;-73
2022/02/24 12:59:46;;;;;;;2.70;0.95;;;;;;;;;;5081123;28;20108;-72
2022/02/24 13:02:13;;;;;;;2.30;0.90;;;;;;;;;;5081097;28;20063;-74
2022/02/24 13:04:39;;;;;;;3.05;1.10;;;;;;;;;;5079499;28;20557;-74
2022/02/24 13:07:06;;;;;;;2.53;0.90;;;;;;;;;;5079684;28;20028;-74
2022/02/24 13:09:45;;;;;;;2.90;1.02;;;;;;;;;;5080463;28;20040;-73
2022/02/24 13:12:16;;;;;;;1.38;0.82;;;;;;;;;;5081419;28;20253;-73
2022/02/24 13:14:46;;;;;;;2.00;0.90;;;;;;;;;;5060832;28;20509;-74
2022/02/24 13:17:21;;;;;;;1.95;0.80;;;;;;;;;;5072895;28;20730;-73
2022/02/24 13:19:47;;;;;;;4.20;1.00;;;;;;;;;;5078832;28;20036;-73
2022/02/24 13:22:13;;;;;;;3.65;0.95;;;;;;;;;;5080934;28;20703;-72
2022/02/24 13:24:42;;;;;;;3.28;1.08;;;;;;;;;;5079127;28;20074;-72
2022/02/24 13:27:09;;;;;;;5.93;1.42;;;;;;;;;;5080654;28;20047;-72
2022/02/24 13:29:39;;;;;;;3.85;0.93;;;;;;;;;;5077444;28;20044;-73
2022/02/24 13:32:15;;;;;;;3.65;1.05;;;;;;;;;;5081264;28;20028;-73
2022/02/24 13:34:43;;;;;;;2.42;1.20;;;;;;;;;;5081697;28;20035;-71
2022/02/24 13:37:13;;;;;;;2.85;1.00;;;;;;;;;;5081671;28;20043;-74
2022/02/24 13:39:39;;;;;;;4.50;1.30;;;;;;;;;;5082891;28;20028;-73
2022/02/24 13:42:06;;;;;;;2.08;1.00;;;;;;;;;;5064537;28;20024;-73
2022/02/24 13:44:42;;;;;;;2.80;1.10;;;;;;;;;;5082038;28;20028;-71
2022/02/24 13:47:09;;;;;;;1.98;1.30;;;;;;;;;;5081428;28;20028;-73
2022/02/24 13:49:37;;;;;;;6.10;1.20;;;;;;;;;;5082741;28;20062;-74
2022/02/24 13:52:04;;;;;;;3.63;1.05;;;;;;;;;;5082395;28;20016;-74
2022/02/24 13:54:30;;;;;;;4.22;1.80;;;;;;;;;;5082964;28;20024;-73
2022/02/24 13:56:57;;;;;;;2.75;1.33;;;;;;;;;;5082725;28;20034;-73
2022/02/24 13:59:23;;;;;;;2.35;1.42;;;;;;;;;;5082001;28;20609;-73
2022/02/24 14:01:53;;;;;;;2.63;1.30;;;;;;;;;;5080858;28;20055;-74
2022/02/24 14:04:22;;;;;;;2.25;1.10;;;;;;;;;;5082514;28;20032;-74
2022/02/24 14:06:48;;;;;;;4.68;1.23;;;;;;;;;;5078630;28;20024;-73
2022/02/24 14:09:21;;;;;;;4.35;1.50;;;;;;;;;;5079763;28;20408;-74
2022/02/24 14:11:48;;;;;;;3.40;1.85;;;;;;;;;;5078603;28;20077;-73
2022/02/24 14:14:14;;;;;;;3.42;1.40;;;;;;;;;;5080009;28;20024;-73
2022/02/24 14:16:40;;;;;;;5.22;1.80;;;;;;;;;;5080106;28;20035;-73
2022/02/24 14:19:10;;;;;;;3.63;1.33;;;;;;;;;;5079603;28;20032;-73
2022/02/24 14:21:36;;;;;;;9.98;3.05;;;;;;;;;;5078717;28;20371;-71
2022/02/24 14:24:02;;;;;;;4.47;2.00;;;;;;;;;;5080189;28;20031;-73
2022/02/24 14:26:28;;;;;;;8.07;3.90;;;;;;;;;;5079659;28;20024;-72
2022/02/24 14:28:55;;;;;;;7.00;3.20;;;;;;;;;;5079941;28;20036;-73
2022/02/24 14:31:21;;;;;;;3.15;1.38;;;;;;;;;;5079184;28;20339;-73
2022/02/24 14:33:48;;;;;;;3.28;1.10;;;;;;;;;;5078446;28;20052;-73
2022/02/24 14:36:14;;;;;;;3.50;1.20;;;;;;;;;;5079291;28;20034;-73
2022/02/24 14:38:41;;;;;;;3.60;1.10;;;;;;;;;;5080708;28;20029;-73
2022/02/24 14:41:08;;;;;;;3.45;1.20;;;;;;;;;;5084207;28;20488;-73
2022/02/24 14:43:34;;;;;;;4.05;1.48;;;;;;;;;;5081133;28;20425;-72